createdAt,value
2019-01-19T00:02:18.976Z,11.20
2019-01-19T00:06:23.893Z,9.53
2019-01-19T00:10:25.084Z,12.20
2019-01-19T00:14:08.868Z,13.43
2019-01-19T00:18:12.760Z,11.30
2019-01-19T00:21:59.292Z,12.77
2019-01-19T00:25:38.148Z,12.90
2019-01-19T00:29:17.944Z,13.20
2019-01-19T00:33:21.597Z,10.50
2019-01-19T00:37:01.135Z,9.83
2019-01-19T00:41:07.667Z,9.37
2019-01-19T00:45:01.329Z,13.73
2019-01-19T00:48:53.984Z,18.47
2019-01-19T00:52:49.458Z,14.57
2019-01-19T00:56:31.209Z,14.90
2019-01-19T00:59:50.119Z,16.90
2019-01-19T01:03:38.063Z,12.23
2019-01-19T01:07:17.529Z,12.27
2019-01-19T01:10:52.443Z,12.70
2019-01-19T01:14:49.440Z,12.90
2019-01-19T01:18:25.669Z,10.73
2019-01-19T01:22:19.301Z,10.43
2019-01-19T01:26:34.618Z,9.73
2019-01-19T01:30:24.958Z,9.63
2019-01-19T01:34:26.358Z,12.63
2019-01-19T01:38:00.153Z,10.17
2019-01-19T01:41:44.691Z,14.33
2019-01-19T01:45:40.512Z,12.87
2019-01-19T01:49:36.723Z,12.70
2019-01-19T01:53:19.327Z,13.70
2019-01-19T01:56:35.254Z,21.27
2019-01-19T02:00:58.153Z,18.83
2019-01-19T02:04:54.861Z,12.30
2019-01-19T02:08:22.475Z,14.30
2019-01-19T02:12:10.876Z,15.03
2019-01-19T02:15:53.176Z,11.20
2019-01-19T02:19:57.721Z,10.33
2019-01-19T02:23:49.311Z,12.07
2019-01-19T02:27:51.115Z,11.33
2019-01-19T02:31:37.320Z,9.67
2019-01-19T02:35:39.044Z,11.43
2019-01-19T02:39:01.280Z,9.83
2019-01-19T02:42:41.086Z,9.33
2019-01-19T02:46:36.616Z,9.70
2019-01-19T02:50:13.501Z,9.10
2019-01-19T02:54:23.390Z,9.33
2019-01-19T02:58:20.821Z,8.83
2019-01-19T03:02:09.837Z,7.83
2019-01-19T03:05:40.529Z,8.77
2019-01-19T03:09:19.421Z,9.43
2019-01-19T03:12:59.875Z,9.67
2019-01-19T03:17:00.609Z,7.67
2019-01-19T03:20:42.584Z,7.47
2019-01-19T03:24:19.296Z,7.13
2019-01-19T03:28:06.306Z,7.33
2019-01-19T03:31:53.022Z,7.80
2019-01-19T03:35:21.933Z,8.70
2019-01-19T03:39:07.186Z,7.77
2019-01-19T03:43:15.025Z,7.20
2019-01-19T03:46:51.480Z,6.77
2019-01-19T03:50:18.480Z,6.80
2019-01-19T03:54:05.162Z,6.67
2019-01-19T03:57:41.444Z,7.77
2019-01-19T04:01:30.176Z,8.17
2019-01-19T04:05:05.701Z,7.23
2019-01-19T04:08:52.927Z,6.37
2019-01-19T04:12:51.078Z,6.57
2019-01-19T04:16:27.123Z,7.70
2019-01-19T04:20:02.431Z,9.50
2019-01-19T04:23:18.021Z,7.87
2019-01-19T04:26:39.401Z,7.87
2019-01-19T04:29:54.739Z,8.70
2019-01-19T04:33:09.990Z,7.63
2019-01-19T04:36:25.646Z,7.43
2019-01-19T04:39:40.897Z,7.20
2019-01-19T04:42:56.152Z,7.63
2019-01-19T04:46:11.508Z,7.17
2019-01-19T04:49:27.100Z,8.30
2019-01-19T04:52:42.533Z,8.33
2019-01-19T04:55:57.666Z,7.93
2019-01-19T04:59:13.125Z,7.20
2019-01-19T05:02:28.344Z,7.30
2019-01-19T05:05:43.820Z,7.20
2019-01-19T05:08:59.282Z,7.30
2019-01-19T05:12:14.446Z,8.17
2019-01-19T05:15:30.467Z,7.27
2019-01-19T05:18:45.843Z,7.70
2019-01-19T05:22:01.085Z,7.73
2019-01-19T05:25:16.655Z,7.30
2019-01-19T05:28:32.206Z,7.53
2019-01-19T05:31:47.879Z,6.93
2019-01-19T05:35:03.538Z,7.93
2019-01-19T05:38:18.990Z,7.50
2019-01-19T05:41:34.385Z,7.60
2019-01-19T05:44:49.903Z,7.60
2019-01-19T05:48:05.351Z,10.83
2019-01-19T05:51:20.482Z,8.80
2019-01-19T05:54:35.853Z,7.90
2019-01-19T05:57:51.412Z,8.07
2019-01-19T06:01:06.870Z,7.57
2019-01-19T06:04:22.215Z,10.27
2019-01-19T06:07:37.678Z,10.60
2019-01-19T06:10:53.574Z,8.30
2019-01-19T06:14:08.671Z,7.80
2019-01-19T06:17:24.202Z,9.37
2019-01-19T06:20:39.686Z,9.10
2019-01-19T06:23:55.051Z,12.40
2019-01-19T06:27:10.504Z,9.40
2019-01-19T06:30:26.160Z,10.03
2019-01-19T06:33:59.311Z,8.97
2019-01-19T06:37:14.669Z,11.53
2019-01-19T06:40:30.216Z,13.17
2019-01-19T06:43:45.702Z,17.30
2019-01-19T06:47:01.864Z,11.97
2019-01-19T06:50:16.978Z,10.43
2019-01-19T06:53:32.308Z,10.30
2019-01-19T06:56:47.810Z,8.10
2019-01-19T07:00:03.361Z,8.37
2019-01-19T07:03:18.727Z,15.90
2019-01-19T07:06:34.290Z,18.73
2019-01-19T07:09:49.626Z,16.43
2019-01-19T07:13:05.110Z,19.47
2019-01-19T07:16:20.277Z,18.13
2019-01-19T07:19:35.784Z,13.30
2019-01-19T07:22:51.453Z,12.20
2019-01-19T07:26:06.892Z,15.50
2019-01-19T07:29:22.188Z,15.43
2019-01-19T07:32:38.279Z,12.50
2019-01-19T07:35:53.477Z,12.87
2019-01-19T07:39:08.737Z,15.37
2019-01-19T07:42:24.365Z,12.10
2019-01-19T07:45:39.730Z,24.80
2019-01-19T07:48:55.477Z,29.27
2019-01-19T07:52:11.039Z,25.90
2019-01-19T07:55:27.011Z,26.10
2019-01-19T07:58:42.473Z,23.60
2019-01-19T08:01:57.946Z,23.20
2019-01-19T08:05:13.365Z,16.33
2019-01-19T08:08:28.840Z,8.43
2019-01-19T08:11:44.335Z,18.73
2019-01-19T08:14:59.446Z,32.87
2019-01-19T08:18:14.758Z,24.93
2019-01-19T08:21:30.103Z,16.57
2019-01-19T08:24:45.698Z,30.47
2019-01-19T08:28:01.418Z,27.70
2019-01-19T08:31:17.026Z,27.13
2019-01-19T08:34:32.575Z,28.80
2019-01-19T08:37:50.172Z,16.60
2019-01-19T08:41:05.629Z,13.73
2019-01-19T08:44:22.714Z,13.10
2019-01-19T08:47:37.837Z,10.43
2019-01-19T08:50:53.421Z,9.63
2019-01-19T08:54:08.484Z,17.57
2019-01-19T08:57:24.242Z,12.70
2019-01-19T09:00:39.803Z,12.23
2019-01-19T09:03:55.275Z,9.37
2019-01-19T09:07:10.819Z,11.43
2019-01-19T09:10:26.263Z,10.97
2019-01-19T09:13:41.728Z,10.97
2019-01-19T09:16:58.201Z,12.63
2019-01-19T09:20:14.602Z,15.50
2019-01-19T09:23:34.238Z,16.97
2019-01-19T09:26:49.253Z,16.07
2019-01-19T09:30:08.098Z,17.70
2019-01-19T09:33:23.454Z,17.83
2019-01-19T09:36:38.996Z,20.63
2019-01-19T09:39:54.267Z,39.83
2019-01-19T09:43:09.714Z,48.90
2019-01-19T09:46:25.192Z,51.90
2019-01-19T09:49:40.865Z,49.47
2019-01-19T09:52:56.108Z,49.30
2019-01-19T09:56:11.187Z,25.23
2019-01-19T09:59:26.576Z,10.50
2019-01-19T10:02:41.621Z,10.27
2019-01-19T10:05:57.081Z,9.40
2019-01-19T10:09:12.641Z,9.83
2019-01-19T10:12:29.002Z,9.83
2019-01-19T10:15:44.885Z,9.17
2019-01-19T10:19:00.273Z,9.23
2019-01-19T10:22:15.620Z,10.33
2019-01-19T10:25:31.237Z,11.77
2019-01-19T10:28:49.003Z,10.43
2019-01-19T10:32:05.490Z,8.23
2019-01-19T10:35:40.690Z,7.23
2019-01-19T10:38:55.204Z,6.23
2019-01-19T10:42:08.803Z,6.13
2019-01-19T10:45:23.004Z,7.13
2019-01-19T10:48:36.486Z,11.97
2019-01-19T10:51:50.715Z,13.80
2019-01-19T10:55:04.696Z,10.47
2019-01-19T10:58:18.343Z,7.70
2019-01-19T11:01:31.914Z,8.90
2019-01-19T11:04:45.870Z,8.73
2019-01-19T11:08:04.001Z,8.00
2019-01-19T11:11:15.174Z,8.20
2019-01-19T11:14:28.946Z,6.87
2019-01-19T11:17:42.886Z,6.87
2019-01-19T11:20:56.522Z,9.30
2019-01-19T11:24:10.219Z,6.90
2019-01-19T11:27:24.381Z,8.90
2019-01-19T11:30:38.309Z,10.03
2019-01-19T11:33:51.809Z,8.30
2019-01-19T11:37:05.611Z,8.23
2019-01-19T11:40:21.719Z,8.57
2019-01-19T11:43:35.329Z,8.50
2019-01-19T11:46:49.017Z,10.20
2019-01-19T11:50:03.324Z,10.30
2019-01-19T11:53:17.117Z,7.87
2019-01-19T11:56:31.235Z,6.53
2019-01-19T11:59:44.800Z,7.30
2019-01-19T12:02:58.429Z,7.50
2019-01-19T12:06:11.907Z,6.50
2019-01-19T12:09:25.536Z,7.30
2019-01-19T12:12:39.689Z,6.90
2019-01-19T12:15:53.702Z,7.27
2019-01-19T12:19:07.534Z,9.73
2019-01-19T12:22:21.513Z,6.17
2019-01-19T12:25:35.413Z,6.53
2019-01-19T12:28:49.408Z,6.60
2019-01-19T12:32:03.285Z,7.97
2019-01-19T12:35:17.588Z,7.23
2019-01-19T12:38:31.463Z,10.43
2019-01-19T12:41:44.984Z,11.33
2019-01-19T12:44:58.479Z,7.43
2019-01-19T12:48:12.595Z,6.97
2019-01-19T12:51:26.080Z,7.37
2019-01-19T12:54:39.916Z,6.40
2019-01-19T12:57:53.845Z,10.10
2019-01-19T13:01:07.835Z,7.13
2019-01-19T13:04:21.319Z,11.93
2019-01-19T13:07:35.133Z,6.80
2019-01-19T13:10:53.878Z,9.20
2019-01-19T13:14:07.757Z,6.83
2019-01-19T13:17:53.293Z,8.83
2019-01-19T13:21:49.523Z,7.67
2019-01-19T13:25:29.882Z,7.37
2019-01-19T13:29:46.730Z,9.77
2019-01-19T13:33:45.720Z,13.60
2019-01-19T13:37:20.749Z,11.10
2019-01-19T13:41:05.762Z,9.40
2019-01-19T13:44:57.424Z,8.20
2019-01-19T13:48:50.396Z,10.50
2019-01-19T13:52:58.590Z,7.70
2019-01-19T13:56:48.171Z,12.07
2019-01-19T14:00:41.822Z,8.40
2019-01-19T14:04:14.080Z,8.20
2019-01-19T14:08:15.371Z,6.83
2019-01-19T14:12:01.134Z,12.60
2019-01-19T14:15:36.837Z,15.83
2019-01-19T14:19:41.185Z,18.20
2019-01-19T14:23:36.084Z,20.50
2019-01-19T14:27:25.883Z,10.30
2019-01-19T14:31:10.097Z,8.17
2019-01-19T14:35:11.075Z,16.27
2019-01-19T14:38:37.197Z,10.53
2019-01-19T14:42:33.245Z,21.60
2019-01-19T14:46:03.477Z,13.47
2019-01-19T14:50:14.562Z,8.40
2019-01-19T14:54:07.408Z,11.47
2019-01-19T14:57:58.091Z,12.43
2019-01-19T15:02:06.827Z,8.50
2019-01-19T15:05:45.953Z,9.47
2019-01-19T15:09:11.320Z,8.40
2019-01-19T15:12:56.158Z,8.17
2019-01-19T15:16:53.114Z,7.37
2019-01-19T15:20:25.716Z,10.43
2019-01-19T15:24:18.002Z,7.17
2019-01-19T15:28:06.883Z,9.33
2019-01-19T15:31:41.881Z,7.23
2019-01-19T15:35:28.051Z,6.67
2019-01-19T15:39:27.627Z,8.37
2019-01-19T15:43:32.342Z,6.77
2019-01-19T15:46:57.766Z,6.97
2019-01-19T15:50:58.275Z,6.70
2019-01-19T15:54:27.703Z,6.70
2019-01-19T15:58:06.797Z,6.33
2019-01-19T16:01:55.976Z,6.00
2019-01-19T16:06:06.251Z,6.27
2019-01-19T16:09:54.044Z,48.20
2019-01-19T16:13:55.813Z,11.80
2019-01-19T16:17:51.452Z,7.40
2019-01-19T16:21:26.424Z,6.20
2019-01-19T16:25:05.890Z,6.97
2019-01-19T16:29:02.414Z,7.97
2019-01-19T16:33:07.135Z,7.00
2019-01-19T16:37:07.426Z,6.90
2019-01-19T16:41:17.346Z,7.67
2019-01-19T16:45:04.085Z,8.77
2019-01-19T16:49:11.693Z,11.60
2019-01-19T16:52:40.773Z,9.70
2019-01-19T16:56:30.024Z,11.50
2019-01-19T16:59:55.856Z,10.00
2019-01-19T17:03:35.173Z,12.30
2019-01-19T17:07:24.754Z,14.13
2019-01-19T17:10:49.819Z,15.97
2019-01-19T17:14:21.161Z,9.80
2019-01-19T17:18:14.656Z,12.90
2019-01-19T17:21:58.569Z,12.23
2019-01-19T17:25:44.152Z,17.50
2019-01-19T17:29:39.411Z,14.33
2019-01-19T17:33:01.190Z,15.00
2019-01-19T17:36:39.270Z,12.27
2019-01-19T17:40:20.670Z,13.57
2019-01-19T17:44:25.305Z,17.37
2019-01-19T17:48:10.667Z,13.10
2019-01-19T17:52:08.188Z,12.43
2019-01-19T17:55:41.376Z,13.07
2019-01-19T17:59:34.798Z,21.47
2019-01-19T18:03:30.405Z,33.07
2019-01-19T18:07:06.791Z,20.87
2019-01-19T18:10:45.921Z,15.90
2019-01-19T18:14:29.019Z,14.37
2019-01-19T18:18:07.265Z,19.83
2019-01-19T18:21:54.497Z,19.03
2019-01-19T18:25:24.047Z,16.40
2019-01-19T18:29:08.031Z,13.77
2019-01-19T18:33:07.259Z,14.03
2019-01-19T18:36:56.738Z,15.00
2019-01-19T18:40:35.898Z,13.97
2019-01-19T18:44:00.097Z,14.13
2019-01-19T18:47:26.036Z,14.13
2019-01-19T18:51:09.630Z,14.43
2019-01-19T18:55:00.928Z,16.70
2019-01-19T18:58:41.356Z,17.23
2019-01-19T19:02:09.266Z,15.37
2019-01-19T19:05:50.432Z,16.53
2019-01-19T19:09:39.095Z,27.47
2019-01-19T19:13:13.340Z,28.73
2019-01-19T19:16:47.860Z,22.23
2019-01-19T19:20:34.184Z,29.00
2019-01-19T19:24:25.811Z,43.07
2019-01-19T19:28:12.713Z,18.50
2019-01-19T19:31:58.000Z,20.07
2019-01-19T19:35:39.595Z,17.27
2019-01-19T19:39:27.010Z,18.70
2019-01-19T19:43:05.284Z,22.77
2019-01-19T19:46:49.616Z,22.47
2019-01-19T19:50:51.133Z,24.00
2019-01-19T19:54:04.856Z,19.43
2019-01-19T19:57:19.248Z,44.10
2019-01-19T20:00:32.965Z,25.10
2019-01-19T20:03:46.929Z,20.73
2019-01-19T20:07:00.770Z,18.33
2019-01-19T20:10:17.222Z,18.23
2019-01-19T20:13:30.003Z,16.50
2019-01-19T20:16:43.646Z,22.77
2019-01-19T20:19:59.250Z,18.10
2019-01-19T20:23:13.322Z,19.43
2019-01-19T20:26:27.089Z,21.90
2019-01-19T20:29:40.808Z,20.73
2019-01-19T20:32:54.999Z,20.43
2019-01-19T20:36:09.104Z,18.07
2019-01-19T20:39:23.044Z,22.63
2019-01-19T20:42:37.016Z,27.47
2019-01-19T20:45:50.743Z,22.23
2019-01-19T20:49:04.371Z,20.07
2019-01-19T20:52:18.523Z,20.17
2019-01-19T20:55:32.708Z,17.63
2019-01-19T20:58:46.619Z,21.67
2019-01-19T21:02:00.137Z,22.27
2019-01-19T21:05:14.093Z,21.23
2019-01-19T21:08:27.664Z,23.17
2019-01-19T21:11:41.535Z,22.70
2019-01-19T21:14:55.167Z,29.83
2019-01-19T21:18:09.093Z,29.17
2019-01-19T21:21:23.601Z,22.63
2019-01-19T21:24:37.840Z,19.27
2019-01-19T21:27:51.359Z,20.90
2019-01-19T21:31:05.037Z,20.70
2019-01-19T21:34:18.538Z,22.00
2019-01-19T21:37:32.044Z,22.00
2019-01-19T21:40:45.841Z,20.47
2019-01-19T21:43:59.455Z,20.20
2019-01-19T21:47:13.330Z,23.47
2019-01-19T21:50:26.911Z,21.47
2019-01-19T21:53:40.532Z,22.50
2019-01-19T21:56:53.996Z,20.60
2019-01-19T22:00:10.475Z,20.97
2019-01-19T22:03:23.995Z,21.07
2019-01-19T22:06:37.599Z,20.93
2019-01-19T22:09:51.132Z,20.10
2019-01-19T22:13:05.024Z,20.70
2019-01-19T22:16:18.595Z,18.77
2019-01-19T22:19:32.224Z,21.07
2019-01-19T22:22:46.248Z,22.47
2019-01-19T22:26:00.213Z,27.20
2019-01-19T22:29:14.390Z,44.30
2019-01-19T22:32:27.865Z,49.07
2019-01-19T22:35:42.334Z,37.77
2019-01-19T22:38:55.822Z,26.90
2019-01-19T22:42:09.294Z,24.67
2019-01-19T22:45:23.138Z,22.17
2019-01-19T22:48:36.630Z,25.10
2019-01-19T22:51:50.202Z,26.77
2019-01-19T22:55:04.620Z,24.87
2019-01-19T22:58:18.149Z,25.83
2019-01-19T23:04:55.559Z,26.53
2019-01-19T23:08:10.899Z,23.57
2019-01-19T23:11:33.644Z,21.90
2019-01-19T23:14:44.096Z,25.63
2019-01-19T23:17:59.595Z,28.87
2019-01-19T23:21:15.150Z,26.87
2019-01-19T23:24:30.514Z,28.03
2019-01-19T23:27:45.760Z,26.23
2019-01-19T23:31:01.133Z,24.03
2019-01-19T23:34:16.778Z,24.37
2019-01-19T23:37:32.122Z,21.67
2019-01-19T23:40:47.677Z,23.90
2019-01-19T23:44:03.179Z,18.47
2019-01-19T23:47:18.388Z,18.97
2019-01-19T23:50:33.753Z,27.13
2019-01-19T23:53:49.230Z,25.43
2019-01-19T23:57:04.506Z,20.00
